KCRG

Jacksonville Executive at Craig Airport

Jacksonville, Florida, USA
KCRG 170520Z 1706/1806 33003KT P6SM SKC FM171800 07006KT P6SM FEW030
Issued Valid From Valid To
Nov-17 @ 05:20 UTC
(4 hours ago)
Nov-17 @ 06:00 UTC
(3 hours ago)
Nov-18 @ 06:00 UTC
(in 21 hours)
Nov-17 @ 06:00 to Nov-17 @ 18:00
KCRG 170520Z 1706/1806 33003KT P6SM SKC
Wind Visibility Clouds
330° at 3 knots Greater than 6 miles
  • Clear skies
From Nov-17 @ 18:00 to Nov-18 @ 06:00
FM171800 07006KT P6SM FEW030
Wind Visibility Clouds
70° at 6 knots Greater than 6 miles
  • Few at 3,000' AGL
KCRG 170520Z 1706/1806 33003KT P6SM SKC FM171800 07006KT P6SM FEW030
Issued Nov-17 @ 05:20 UTC
(4 hours ago)
Valid From Nov-17 @ 06:00 UTC
(3 hours ago)
Valid To Nov-18 @ 06:00 UTC
(in 21 hours)
Nov-17 @ 06:00 - Nov-17 @ 18:00
Wind Visibility
330° at 3 knots Greater than 6 miles
Clouds
  • Clear skies
From Nov-17 @ 18:00 - Nov-18 @ 06:00
Wind Visibility
70° at 6 knots Greater than 6 miles
Clouds
  • Few at 3,000' AGL